KSHD

Shenandoah Valley Regional Airport

Staunton/Waynesboro/Harrisonburg, Virginia, USA
METAR KSHD 231035Z AUTO 00000KT 10SM CLR 18/17 A3002 RMK AO2 T01830170
Observed Flight Rules
May-23 @ 10:35 UTC (33 minutes ago) Visual Flight Rules
Visibility Clouds
10 miles
  • Clear skies
Temperatures Readings
Current 18°C / 64°F
Dewpoint 17°C / 63°F
Humidity 94%
Altimeter 30.02" Hg
Pressure 1017 hPa
Elevation 366
METAR KSHD 231035Z AUTO 00000KT 10SM CLR 18/17 A3002 RMK AO2 T01830170
Observed Flight Rules
May-23 @ 10:35 UTC
(33 minutes ago)
VFR
Clouds
  • Clear skies
Temperature Dewpoint
18°C / 64°F 17°C / 63°F
Humidity Altimeter Pressure
94% 30.02" Hg 1017 hPa